Decoded Metar for KFME (FORT MEADE in MD, USA) (IATA:N/A) | Meteo·Mobile Aviation Weather
aviador You're here:

KFME Decoded Metar

FORT MEADE in MD, USA
Report Time2019-04-23 08:00:00
UTC Time2019-04-23 08:30:40
Flight Rules vfr VFR
WindCalm
Visibility9999 m
Phenomena:N/A
Clouds:N/A
CeilingNone
Temp07°C (ISA -8)
Dew Point07°C (100% RH)
AAT6.3°C
QNH1018 hPa
Density Alt-810 ft
Elevation151 ft
Report Wrong Elevation
Raw Report
KFME 230800Z AUTO 00000KT 10SM CLR 07/07 A3007 RMK AO1=

Extra information for KFME:More info

Metar Taf Metar & Taf Last 4 Metars F.Rules Stats Wind Profile Meteogram Temp Stats Airport Information Weather charts Add Link Nearby VenuesMetar ALERT Operation Metar Decoded Social comments

AIRNAV info for KFME